Terminal Aerodrome Forecast
Issued by NWS North Platte, NE

Home | Current Version | Previous Version | Graphics & Text | Print | Product List | Glossary On
Versions: 1 2 3 4 5 6 7 8 9 10 11 12 13 14 15 16
000
FTUS43 KLBF 191120
TAFVTN
TAF
KVTN 191120Z 1912/2012 18008KT P6SM SCT200 WS020/19040KT
     FM191400 19010KT P6SM SCT200
     FM191500 19016G24KT P6SM SCT200
     FM192200 22015G22KT P6SM SCT200
     FM192300 25014G21KT P6SM SCT200
     FM200100 28013G19KT P6SM SCT250
     FM200300 31014G21KT P6SM BKN200
     FM200700 29010KT P6SM SCT200=

USA.gov is the U.S. government's official web portal to all federal, state and local government web resources and services.